createdAt,value
2018-08-23T00:01:32.326Z,21.63
2018-08-23T00:04:09.978Z,21.40
2018-08-23T00:06:41.423Z,21.77
2018-08-23T00:09:09.878Z,22.53
2018-08-23T00:11:47.720Z,22.90
2018-08-23T00:14:16.940Z,22.97
2018-08-23T00:16:46.550Z,22.10
2018-08-23T00:19:15.727Z,24.07
2018-08-23T00:21:47.908Z,23.77
2018-08-23T00:24:17.624Z,24.67
2018-08-23T00:26:53.688Z,24.53
2018-08-23T00:29:27.472Z,25.60
2018-08-23T00:31:57.617Z,24.37
2018-08-23T00:34:33.680Z,25.47
2018-08-23T00:37:02.744Z,25.70
2018-08-23T00:39:31.224Z,24.20
2018-08-23T00:42:05.126Z,25.57
2018-08-23T00:44:52.074Z,27.37
2018-08-23T00:47:21.226Z,26.40
2018-08-23T00:49:49.729Z,25.83
2018-08-23T00:52:18.450Z,26.30
2018-08-23T00:54:46.931Z,26.53
2018-08-23T00:57:15.359Z,25.90
2018-08-23T00:59:47.226Z,25.27
2018-08-23T01:02:15.672Z,25.40
2018-08-23T01:04:45.759Z,25.80
2018-08-23T01:07:18.733Z,24.47
2018-08-23T01:09:47.211Z,25.27
2018-08-23T01:12:15.691Z,25.33
2018-08-23T01:14:44.155Z,24.90
2018-08-23T01:17:16.884Z,24.00
2018-08-23T01:19:50.895Z,25.87
2018-08-23T01:22:19.487Z,23.57
2018-08-23T01:24:49.171Z,25.23
2018-08-23T01:27:51.787Z,25.13
2018-08-23T01:30:22.910Z,23.83
2018-08-23T01:32:51.491Z,24.07
2018-08-23T01:35:19.922Z,24.73
2018-08-23T01:37:48.358Z,23.87
2018-08-23T01:40:16.814Z,25.40
2018-08-23T01:42:45.236Z,24.13
2018-08-23T01:45:13.685Z,24.50
2018-08-23T01:47:47.407Z,24.57
2018-08-23T01:50:15.900Z,24.00
2018-08-23T01:52:48.587Z,24.43
2018-08-23T01:55:17.808Z,23.83
2018-08-23T01:57:46.656Z,23.93
2018-08-23T02:00:19.348Z,23.37
2018-08-23T02:02:47.967Z,23.60
2018-08-23T02:05:16.415Z,23.53
2018-08-23T02:07:44.874Z,22.17
2018-08-23T02:10:13.324Z,24.07
2018-08-23T02:12:46.119Z,23.60
2018-08-23T02:15:14.619Z,23.47
2018-08-23T02:17:48.439Z,22.53
2018-08-23T02:20:16.863Z,24.47
2018-08-23T02:22:45.335Z,24.00
2018-08-23T02:25:13.788Z,24.43
2018-08-23T02:28:11.578Z,23.73
2018-08-23T02:31:01.432Z,21.77
2018-08-23T02:33:29.973Z,22.40
2018-08-23T02:36:22.900Z,21.47
2018-08-23T02:39:09.832Z,21.43
2018-08-23T02:41:41.086Z,21.67
2018-08-23T02:44:09.553Z,20.27
2018-08-23T02:46:38.062Z,19.80
2018-08-23T02:49:06.503Z,20.27
2018-08-23T02:51:41.611Z,19.90
2018-08-23T02:54:12.012Z,21.43
2018-08-23T02:56:43.092Z,21.33
2018-08-23T02:59:11.530Z,20.73
2018-08-23T03:01:41.428Z,20.97
2018-08-23T03:04:17.864Z,20.87
2018-08-23T03:06:50.739Z,21.63
2018-08-23T03:09:22.072Z,21.77
2018-08-23T03:11:51.707Z,22.33
2018-08-23T03:14:21.305Z,23.70
2018-08-23T03:17:40.443Z,22.80
2018-08-23T03:20:15.174Z,23.27
2018-08-23T03:22:44.812Z,24.70
2018-08-23T03:25:14.571Z,25.23
2018-08-23T03:27:43.007Z,24.40
2018-08-23T03:30:12.628Z,26.67
2018-08-23T03:32:41.163Z,24.63
2018-08-23T03:35:09.639Z,26.53
2018-08-23T03:37:38.106Z,23.53
2018-08-23T03:40:07.167Z,25.37
2018-08-23T03:42:35.697Z,25.40
2018-08-23T03:45:04.111Z,25.40
2018-08-23T03:47:39.157Z,25.73
2018-08-23T03:50:08.843Z,26.80
2018-08-23T03:52:37.425Z,25.23
2018-08-23T03:55:07.291Z,26.73
2018-08-23T03:57:41.040Z,27.43
2018-08-23T04:00:09.480Z,27.03
2018-08-23T04:02:38.031Z,27.03
2018-08-23T04:05:13.030Z,26.67
2018-08-23T04:07:42.556Z,26.47
2018-08-23T04:10:10.998Z,29.13
2018-08-23T04:12:40.885Z,29.47
2018-08-23T04:15:17.073Z,29.37
2018-08-23T04:17:46.103Z,28.93
2018-08-23T04:20:14.579Z,28.83
2018-08-23T04:22:43.025Z,27.17
2018-08-23T04:25:11.475Z,27.40
2018-08-23T04:27:39.936Z,29.00
2018-08-23T04:30:09.031Z,28.83
2018-08-23T04:32:41.275Z,27.20
2018-08-23T04:35:14.074Z,29.20
2018-08-23T04:37:42.596Z,28.87
2018-08-23T04:40:12.552Z,30.60
2018-08-23T04:42:41.014Z,28.00
2018-08-23T04:45:11.003Z,28.53
2018-08-23T04:47:48.532Z,29.40
2018-08-23T04:50:16.986Z,29.83
2018-08-23T04:52:45.492Z,29.27
2018-08-23T04:55:13.915Z,30.07
2018-08-23T04:57:42.355Z,30.23
2018-08-23T05:00:10.771Z,29.57
2018-08-23T05:02:39.256Z,29.93
2018-08-23T05:05:07.687Z,29.47
2018-08-23T05:07:36.219Z,30.13
2018-08-23T05:10:04.917Z,30.63
2018-08-23T05:12:33.444Z,30.57
2018-08-23T05:15:01.983Z,31.40
2018-08-23T05:17:30.432Z,30.80
2018-08-23T05:19:58.979Z,30.10
2018-08-23T05:22:27.478Z,31.83
2018-08-23T05:25:00.482Z,30.87
2018-08-23T05:27:28.942Z,31.20
2018-08-23T05:29:57.445Z,29.17
2018-08-23T05:32:25.958Z,30.57
2018-08-23T05:34:54.407Z,31.97
2018-08-23T05:37:22.880Z,32.00
2018-08-23T05:39:52.438Z,32.07
2018-08-23T05:42:33.539Z,31.33
2018-08-23T05:45:01.998Z,29.90
2018-08-23T05:47:30.458Z,31.80
2018-08-23T05:49:58.884Z,30.13
2018-08-23T05:52:27.422Z,29.87
2018-08-23T05:54:56.227Z,29.53
2018-08-23T05:57:24.691Z,30.00
2018-08-23T05:59:54.823Z,29.57
2018-08-23T06:02:23.433Z,29.10
2018-08-23T06:04:51.867Z,28.13
2018-08-23T06:07:20.299Z,28.00
2018-08-23T06:09:48.746Z,27.57
2018-08-23T06:12:17.177Z,27.13
2018-08-23T06:14:45.639Z,29.17
2018-08-23T06:17:14.103Z,26.77
2018-08-23T06:19:42.567Z,26.50
2018-08-23T06:22:11.034Z,27.13
2018-08-23T06:24:39.490Z,28.07
2018-08-23T06:27:07.941Z,26.20
2018-08-23T06:29:36.431Z,25.93
2018-08-23T06:32:09.223Z,26.13
2018-08-23T06:34:41.596Z,25.97
2018-08-23T06:37:10.028Z,25.43
2018-08-23T06:39:40.431Z,23.50
2018-08-23T06:42:08.912Z,24.23
2018-08-23T06:44:43.433Z,23.47
2018-08-23T06:47:13.469Z,23.73
2018-08-23T06:49:43.042Z,22.70
2018-08-23T06:52:14.180Z,23.70
2018-08-23T06:54:43.055Z,23.17
2018-08-23T06:57:11.968Z,23.70
2018-08-23T06:59:40.625Z,23.03
2018-08-23T07:02:09.175Z,23.40
2018-08-23T07:04:37.631Z,23.10
2018-08-23T07:07:06.131Z,23.87
2018-08-23T07:09:40.060Z,22.87
2018-08-23T07:12:13.843Z,24.13
2018-08-23T07:14:42.351Z,24.00
2018-08-23T07:17:17.584Z,23.53
2018-08-23T07:19:47.049Z,24.37
2018-08-23T07:22:21.260Z,25.53
2018-08-23T07:24:50.546Z,24.40
2018-08-23T07:27:20.081Z,24.37
2018-08-23T07:29:50.789Z,24.17
2018-08-23T07:32:21.535Z,25.00
2018-08-23T07:35:02.149Z,24.33
2018-08-23T07:37:31.701Z,25.00
2018-08-23T07:40:05.654Z,23.50
2018-08-23T07:42:35.112Z,24.53
2018-08-23T07:45:03.980Z,24.03
2018-08-23T07:47:33.287Z,25.30
2018-08-23T07:50:02.600Z,25.53
2018-08-23T07:52:32.300Z,25.13
2018-08-23T07:55:02.535Z,26.70
2018-08-23T07:57:32.063Z,26.73
2018-08-23T08:00:01.789Z,26.50
2018-08-23T08:02:30.595Z,27.87
2018-08-23T08:04:59.429Z,28.33
2018-08-23T08:07:29.247Z,26.87
2018-08-23T08:09:59.722Z,26.70
2018-08-23T08:12:37.916Z,26.93
2018-08-23T08:15:08.848Z,26.73
2018-08-23T08:17:37.335Z,27.40
2018-08-23T08:20:07.321Z,26.83
2018-08-23T08:22:35.865Z,26.40
2018-08-23T08:25:09.238Z,27.20
2018-08-23T08:27:38.608Z,26.33
2018-08-23T08:30:12.110Z,28.97
2018-08-23T08:32:40.674Z,27.40
2018-08-23T08:35:16.256Z,26.87
2018-08-23T08:37:45.959Z,27.83
2018-08-23T08:40:18.640Z,26.93
2018-08-23T08:42:47.202Z,27.63
2018-08-23T08:45:15.647Z,27.33
2018-08-23T08:47:45.317Z,27.07
2018-08-23T08:50:13.736Z,27.93
2018-08-23T08:52:42.229Z,27.63
2018-08-23T08:55:12.470Z,25.70
2018-08-23T08:57:43.955Z,25.97
2018-08-23T09:00:12.501Z,25.93
2018-08-23T09:02:41.051Z,24.53
2018-08-23T09:05:10.411Z,23.80
2018-08-23T09:07:40.633Z,24.10
2018-08-23T09:10:09.088Z,24.00
2018-08-23T09:12:42.924Z,23.43
2018-08-23T09:15:11.384Z,21.73
2018-08-23T09:17:45.152Z,19.63
2018-08-23T09:20:17.804Z,16.63
2018-08-23T09:22:50.791Z,16.47
2018-08-23T09:25:33.198Z,16.27
2018-08-23T09:28:01.744Z,15.23
2018-08-23T09:30:31.515Z,16.57
2018-08-23T09:33:05.498Z,17.20
2018-08-23T09:35:34.487Z,16.57
2018-08-23T09:38:12.100Z,17.23
2018-08-23T09:40:40.598Z,17.37
2018-08-23T09:43:09.240Z,17.73
2018-08-23T09:45:38.482Z,17.73
2018-08-23T09:48:06.974Z,18.70
2018-08-23T09:50:35.594Z,17.73
2018-08-23T09:53:10.008Z,17.60
2018-08-23T09:55:38.495Z,16.90
2018-08-23T09:58:11.172Z,17.63
2018-08-23T10:01:43.775Z,16.73
2018-08-23T10:04:17.545Z,16.30
2018-08-23T10:06:51.354Z,16.67
2018-08-23T10:09:21.956Z,16.33
2018-08-23T10:11:55.738Z,16.20
2018-08-23T10:14:29.684Z,14.53
2018-08-23T10:17:03.635Z,14.80
2018-08-23T10:19:37.251Z,17.30
2018-08-23T10:22:11.073Z,17.77
2018-08-23T10:24:39.531Z,17.10
2018-08-23T10:27:08.115Z,18.43
2018-08-23T10:29:36.578Z,18.37
2018-08-23T10:32:05.096Z,20.57
2018-08-23T10:34:33.574Z,22.13
2018-08-23T10:37:02.063Z,20.23
2018-08-23T10:39:30.503Z,19.17
2018-08-23T10:41:58.959Z,20.90
2018-08-23T10:44:27.517Z,21.70
2018-08-23T10:46:56.500Z,20.80
2018-08-23T10:49:25.723Z,20.30
2018-08-23T10:51:54.197Z,20.63
2018-08-23T10:54:22.745Z,20.30
2018-08-23T10:56:51.174Z,19.47
2018-08-23T10:59:19.660Z,19.83
2018-08-23T11:01:48.138Z,19.97
2018-08-23T11:04:16.676Z,20.67
2018-08-23T11:06:50.412Z,21.53
2018-08-23T11:09:24.189Z,21.50
2018-08-23T11:11:52.682Z,21.37
2018-08-23T11:14:26.389Z,21.23
2018-08-23T11:17:00.299Z,20.83
2018-08-23T11:19:34.102Z,19.70
2018-08-23T11:22:02.557Z,19.97
2018-08-23T11:24:31.077Z,17.13
2018-08-23T11:26:59.524Z,16.60
2018-08-23T11:29:28.060Z,15.97
2018-08-23T11:31:56.531Z,13.63
2018-08-23T11:34:25.071Z,14.37
2018-08-23T11:36:53.527Z,14.23
2018-08-23T11:39:22.019Z,14.37
2018-08-23T11:41:50.533Z,14.53
2018-08-23T11:44:19.123Z,12.03
2018-08-23T11:46:47.595Z,11.63
2018-08-23T11:49:16.043Z,11.80
2018-08-23T11:51:44.533Z,12.50
2018-08-23T11:54:13.002Z,10.83
2018-08-23T11:56:41.460Z,11.17
2018-08-23T11:59:10.013Z,10.40
2018-08-23T12:01:38.393Z,8.40
2018-08-23T12:04:07.131Z,8.50
2018-08-23T12:06:35.590Z,6.37
2018-08-23T12:09:04.899Z,6.80
2018-08-23T12:11:33.356Z,5.77
2018-08-23T12:14:01.898Z,6.90
2018-08-23T12:16:30.360Z,6.03
2018-08-23T12:18:58.819Z,7.87
2018-08-23T12:21:27.313Z,6.90
2018-08-23T12:23:55.803Z,6.47
2018-08-23T12:26:24.259Z,6.13
2018-08-23T12:28:57.966Z,5.53
2018-08-23T12:31:26.432Z,4.53
2018-08-23T12:33:54.989Z,3.93
2018-08-23T12:36:28.814Z,4.43
2018-08-23T12:39:02.692Z,4.47
2018-08-23T12:41:36.410Z,4.33
2018-08-23T12:44:04.896Z,3.57
2018-08-23T12:46:33.488Z,4.03
2018-08-23T12:49:02.064Z,4.13
2018-08-23T12:51:30.540Z,4.03
2018-08-23T12:53:59.032Z,4.03
2018-08-23T12:56:27.561Z,4.47
2018-08-23T12:58:55.928Z,3.93
2018-08-23T13:01:24.449Z,3.77
2018-08-23T13:03:53.038Z,3.50
2018-08-23T13:06:21.491Z,3.20
2018-08-23T13:08:50.148Z,3.20
2018-08-23T13:11:18.615Z,4.17
2018-08-23T13:13:47.192Z,5.67
2018-08-23T13:16:15.645Z,4.93
2018-08-23T13:18:44.173Z,4.07
2018-08-23T13:21:12.591Z,3.40
2018-08-23T13:23:47.557Z,3.43
2018-08-23T13:26:16.019Z,3.17
2018-08-23T13:28:44.505Z,3.23
2018-08-23T13:31:13.030Z,2.43
2018-08-23T13:33:41.584Z,3.00
2018-08-23T13:36:10.130Z,3.00
2018-08-23T13:38:38.539Z,3.27
2018-08-23T13:41:06.992Z,3.80
2018-08-23T13:43:35.654Z,3.03
2018-08-23T13:46:04.047Z,2.53
2018-08-23T13:48:32.676Z,2.30
2018-08-23T13:51:01.047Z,2.13
2018-08-23T13:53:29.565Z,1.83
2018-08-23T13:55:58.013Z,2.00
2018-08-23T13:58:26.542Z,1.60
2018-08-23T14:00:55.027Z,1.70
2018-08-23T14:03:23.561Z,2.07
2018-08-23T14:05:52.035Z,1.87
2018-08-23T14:08:20.521Z,2.27
2018-08-23T14:10:49.031Z,2.40
2018-08-23T14:13:17.515Z,2.10
2018-08-23T14:15:51.421Z,2.60
2018-08-23T14:18:19.906Z,1.93
2018-08-23T14:20:48.349Z,2.07
2018-08-23T14:23:16.843Z,1.80
2018-08-23T14:25:45.318Z,1.53
2018-08-23T14:28:13.809Z,1.37
2018-08-23T14:30:42.290Z,1.63
2018-08-23T14:33:10.831Z,1.10
2018-08-23T14:35:39.323Z,1.37
2018-08-23T14:38:07.841Z,1.00
2018-08-23T14:40:36.311Z,0.90
2018-08-23T14:43:04.896Z,1.30
2018-08-23T14:45:34.165Z,1.30
2018-08-23T14:48:07.960Z,1.10
2018-08-23T14:50:36.827Z,1.27
2018-08-23T14:53:06.011Z,0.80
2018-08-23T14:55:39.804Z,1.30
2018-08-23T14:58:09.268Z,0.93
2018-08-23T15:00:37.778Z,1.27
2018-08-23T15:03:06.652Z,1.00
2018-08-23T15:05:35.362Z,1.20
2018-08-23T15:08:03.849Z,0.93
2018-08-23T15:10:32.313Z,1.27
2018-08-23T15:13:00.882Z,1.50
2018-08-23T15:15:34.815Z,1.50
2018-08-23T15:18:03.287Z,1.40
2018-08-23T15:20:31.827Z,1.53
2018-08-23T15:23:00.429Z,1.30
2018-08-23T15:25:28.900Z,1.93
2018-08-23T15:27:57.355Z,1.87
2018-08-23T15:30:25.847Z,1.80
2018-08-23T15:32:54.359Z,1.70
2018-08-23T15:35:22.833Z,2.33
2018-08-23T15:37:51.283Z,2.17
2018-08-23T15:40:19.763Z,2.03
2018-08-23T15:42:48.255Z,2.17
2018-08-23T15:45:17.285Z,2.00
2018-08-23T15:47:45.763Z,1.90
2018-08-23T15:50:14.282Z,3.20
2018-08-23T15:52:42.792Z,2.20
2018-08-23T15:55:11.383Z,2.63
2018-08-23T15:57:39.772Z,2.57
2018-08-23T16:00:09.513Z,2.43
2018-08-23T16:02:38.049Z,2.53
2018-08-23T16:05:06.784Z,2.70
2018-08-23T16:07:35.236Z,2.17
2018-08-23T16:10:03.727Z,2.33
2018-08-23T16:12:32.291Z,2.00
2018-08-23T16:15:00.769Z,2.50
2018-08-23T16:17:34.604Z,2.57
2018-08-23T16:20:08.327Z,2.37
2018-08-23T16:22:36.872Z,1.87
2018-08-23T16:25:05.441Z,2.10
2018-08-23T16:27:33.812Z,1.83
2018-08-23T16:30:02.300Z,2.30
2018-08-23T16:32:34.203Z,2.17
2018-08-23T16:35:02.871Z,2.40
2018-08-23T16:37:32.218Z,1.90
2018-08-23T16:40:00.674Z,1.80
2018-08-23T16:42:29.237Z,1.40
2018-08-23T16:44:57.735Z,1.20
2018-08-23T16:47:26.188Z,1.50
2018-08-23T16:49:54.631Z,1.50
2018-08-23T16:52:23.147Z,2.30
2018-08-23T16:54:51.604Z,2.30
2018-08-23T16:57:20.051Z,2.23
2018-08-23T16:59:48.554Z,2.10
2018-08-23T17:02:17.067Z,2.47
2018-08-23T17:04:46.814Z,2.60
2018-08-23T17:07:16.451Z,2.47
2018-08-23T17:09:45.037Z,3.30
2018-08-23T17:12:13.568Z,2.20
2018-08-23T17:14:42.043Z,1.93
2018-08-23T17:17:44.223Z,1.87
2018-08-23T17:20:12.900Z,1.70
2018-08-23T17:22:41.352Z,1.40
2018-08-23T17:25:09.831Z,1.40
2018-08-23T17:27:38.309Z,1.00
2018-08-23T17:30:06.798Z,0.87
2018-08-23T17:32:35.319Z,0.83
2018-08-23T17:35:03.757Z,0.90
2018-08-23T17:37:32.268Z,0.80
2018-08-23T17:40:00.765Z,0.80
2018-08-23T17:42:34.579Z,1.00
2018-08-23T17:45:03.128Z,1.20
2018-08-23T17:47:31.589Z,0.80
2018-08-23T17:50:00.069Z,1.00
2018-08-23T17:52:28.588Z,1.00
2018-08-23T17:54:57.017Z,1.10
2018-08-23T17:57:25.664Z,1.40
2018-08-23T17:59:54.152Z,0.70
2018-08-23T18:02:22.608Z,1.10
2018-08-23T18:04:51.356Z,0.60
2018-08-23T18:07:19.830Z,0.60
2018-08-23T18:09:48.314Z,0.70
2018-08-23T18:12:16.839Z,0.60
2018-08-23T18:14:45.272Z,0.43
2018-08-23T18:17:13.719Z,0.80
2018-08-23T18:19:42.166Z,0.57
2018-08-23T18:22:10.666Z,0.40
2018-08-23T18:24:39.144Z,0.63
2018-08-23T18:27:07.578Z,0.90
2018-08-23T18:29:36.060Z,0.80
2018-08-23T18:32:04.512Z,0.80
2018-08-23T18:34:32.935Z,1.03
2018-08-23T18:37:01.381Z,0.70
2018-08-23T18:39:29.816Z,0.97
2018-08-23T18:41:58.244Z,0.90
2018-08-23T18:51:13.220Z,0.80
2018-08-23T18:53:41.720Z,1.23
2018-08-23T18:56:10.188Z,1.50
2018-08-23T18:58:38.618Z,1.50
2018-08-23T19:01:07.047Z,2.30
2018-08-23T19:03:35.540Z,2.90
2018-08-23T19:06:04.380Z,3.43
2018-08-23T19:08:32.851Z,3.90
2018-08-23T19:11:01.302Z,4.10
2018-08-23T19:13:29.812Z,4.80
2018-08-23T19:16:03.596Z,5.13
2018-08-23T19:18:32.053Z,4.40
2018-08-23T19:21:00.530Z,4.63
2018-08-23T19:23:29.030Z,5.67
2018-08-23T19:25:57.539Z,5.10
2018-08-23T19:28:25.919Z,4.47
2018-08-23T19:30:54.344Z,5.10
2018-08-23T19:33:22.874Z,5.10
2018-08-23T19:35:51.328Z,4.80
2018-08-23T19:38:19.807Z,4.93
2018-08-23T19:40:48.283Z,5.60
2018-08-23T19:43:16.771Z,5.00
2018-08-23T19:45:50.655Z,5.50
2018-08-23T19:48:19.085Z,4.40
2018-08-23T19:50:47.576Z,4.00
2018-08-23T19:53:16.049Z,4.20
2018-08-23T19:55:44.492Z,4.23
2018-08-23T19:58:12.959Z,4.67
2018-08-23T20:00:41.439Z,3.67
2018-08-23T20:03:09.958Z,3.40
2018-08-23T20:05:38.438Z,3.70
2018-08-23T20:08:06.855Z,4.60
2018-08-23T20:10:35.323Z,4.63
2018-08-23T20:13:03.912Z,4.40
2018-08-23T20:15:32.359Z,4.07
2018-08-23T20:18:00.829Z,4.23
2018-08-23T20:20:29.262Z,4.37
2018-08-23T20:22:57.835Z,4.93
2018-08-23T20:25:26.263Z,4.23
2018-08-23T20:27:54.714Z,4.57
2018-08-23T20:30:23.141Z,4.80
2018-08-23T20:32:51.652Z,4.50
2018-08-23T20:35:20.167Z,3.83
2018-08-23T20:37:48.642Z,4.30
2018-08-23T20:40:17.141Z,3.87
2018-08-23T20:42:45.663Z,4.37
2018-08-23T20:45:14.424Z,4.80
2018-08-23T20:47:42.893Z,4.17
2018-08-23T20:50:11.384Z,4.90
2018-08-23T20:52:39.919Z,4.77
2018-08-23T20:55:08.353Z,4.77
2018-08-23T20:57:36.804Z,3.80
2018-08-23T21:00:06.044Z,4.20
2018-08-23T21:02:34.557Z,4.13
2018-08-23T21:05:03.059Z,4.13
2018-08-23T21:07:31.508Z,4.17
2018-08-23T21:10:00.056Z,4.27
2018-08-23T21:12:28.508Z,4.20
2018-08-23T21:14:56.943Z,4.10
2018-08-23T21:17:25.375Z,4.50
2018-08-23T21:19:53.848Z,4.83
2018-08-23T21:22:22.295Z,4.90
2018-08-23T21:24:50.719Z,4.47
2018-08-23T21:27:19.179Z,4.93
2018-08-23T21:29:47.663Z,5.60
2018-08-23T21:32:16.151Z,4.93
2018-08-23T21:34:44.571Z,5.67
2018-08-23T21:37:13.005Z,5.20
2018-08-23T21:39:41.458Z,4.90
2018-08-23T21:42:09.906Z,6.20
2018-08-23T21:44:38.343Z,5.70
2018-08-23T21:47:07.267Z,5.67
2018-08-23T21:49:35.691Z,6.23
2018-08-23T21:52:04.136Z,6.53
2018-08-23T21:54:32.584Z,6.87
2018-08-23T21:57:01.016Z,6.27
2018-08-23T21:59:29.477Z,6.50
2018-08-23T22:02:03.389Z,6.17
2018-08-23T22:04:35.207Z,6.17
2018-08-23T22:07:03.656Z,6.53
2018-08-23T22:09:32.196Z,6.43
2018-08-23T22:12:00.645Z,6.73
2018-08-23T22:14:29.137Z,7.17
2018-08-23T22:16:57.600Z,6.10
2018-08-23T22:19:26.036Z,6.57
2018-08-23T22:21:54.467Z,7.37
2018-08-23T22:24:22.959Z,7.97
2018-08-23T22:26:51.477Z,8.40
2018-08-23T22:29:19.893Z,8.00
2018-08-23T22:31:48.324Z,7.80
2018-08-23T22:34:16.757Z,7.43
2018-08-23T22:36:45.211Z,7.20
2018-08-23T22:39:13.632Z,7.47
2018-08-23T22:41:42.070Z,7.47
2018-08-23T22:44:10.673Z,7.33
2018-08-23T22:46:39.075Z,8.13
2018-08-23T22:49:07.499Z,8.47
2018-08-23T22:51:35.918Z,8.03
2018-08-23T22:54:04.435Z,8.37
2018-08-23T22:56:32.850Z,8.53
2018-08-23T22:59:01.542Z,8.97
2018-08-23T23:01:30.009Z,8.27
2018-08-23T23:04:03.829Z,9.20
2018-08-23T23:06:32.292Z,9.87
2018-08-23T23:09:00.727Z,9.77
2018-08-23T23:11:29.189Z,9.57
2018-08-23T23:13:57.708Z,9.27
2018-08-23T23:16:26.287Z,9.70
2018-08-23T23:18:54.648Z,9.07
2018-08-23T23:21:23.080Z,10.07
2018-08-23T23:23:51.532Z,9.20
2018-08-23T23:26:19.961Z,9.60
2018-08-23T23:28:48.439Z,9.20
2018-08-23T23:31:16.881Z,9.73
2018-08-23T23:33:45.724Z,8.33
2018-08-23T23:36:14.232Z,9.80
2018-08-23T23:38:42.671Z,9.27
2018-08-23T23:41:11.180Z,9.93
2018-08-23T23:43:39.717Z,10.07
2018-08-23T23:46:08.150Z,9.47
2018-08-23T23:48:36.631Z,9.20
2018-08-23T23:51:05.706Z,9.67
2018-08-23T23:53:34.420Z,9.73
2018-08-23T23:56:02.871Z,10.33
2018-08-23T23:58:31.327Z,10.27
